createdAt,value
2019-01-04T00:02:33.376Z,102473.12
2019-01-04T00:05:28.077Z,102473.97
2019-01-04T00:08:18.323Z,102473.12
2019-01-04T00:10:48.865Z,102473.98
2019-01-04T00:13:30.932Z,102463.03
2019-01-04T00:19:30.935Z,102475.59
2019-01-04T00:22:01.294Z,102473.83
2019-01-04T00:24:35.062Z,102470.37
2019-01-04T00:27:02.733Z,102475.91
2019-01-04T00:30:05.081Z,102477.63
2019-01-04T00:32:32.628Z,102480.63
2019-01-04T00:35:00.033Z,102468.59
2019-01-04T00:37:27.919Z,102466.39
2019-01-04T00:40:05.734Z,102461.20
2019-01-04T00:42:33.371Z,102463.04
2019-01-04T00:45:08.306Z,102469.14
2019-01-04T00:47:44.673Z,102473.36
2019-01-04T00:50:13.044Z,102481.11
2019-01-04T00:52:49.052Z,102481.18
2019-01-04T00:56:13.822Z,102471.56
2019-01-04T00:59:16.894Z,102467.25
2019-01-04T01:02:33.277Z,102467.64
2019-01-04T01:05:37.034Z,102462.55
2019-01-04T01:08:31.453Z,102463.91
2019-01-04T01:11:37.338Z,102467.40
2019-01-04T01:14:42.767Z,102479.05
2019-01-04T01:17:52.373Z,102470.91
2019-01-04T01:21:03.747Z,102471.39
2019-01-04T01:28:09.063Z,102479.22
2019-01-04T01:31:24.038Z,102474.41
2019-01-04T01:34:51.568Z,102486.09
2019-01-04T01:38:15.541Z,102493.86
2019-01-04T01:41:25.783Z,102497.78
2019-01-04T01:44:47.435Z,102488.27
2019-01-04T01:47:22.723Z,102485.27
2019-01-04T01:50:39.908Z,102488.31
2019-01-04T01:53:26.467Z,102486.58
2019-01-04T01:55:54.039Z,102491.33
2019-01-04T01:58:21.541Z,102483.57
2019-01-04T02:00:49.059Z,102471.00
2019-01-04T02:03:16.798Z,102466.30
2019-01-04T02:05:44.479Z,102469.75
2019-01-04T02:08:12.023Z,102461.13
2019-01-04T02:10:39.513Z,102461.12
2019-01-04T02:13:51.127Z,102469.72
2019-01-04T02:16:18.637Z,102471.48
2019-01-04T02:19:29.062Z,102469.77
2019-01-04T02:21:56.674Z,102462.01
2019-01-04T02:24:24.192Z,102458.55
2019-01-04T02:26:51.667Z,102458.11
2019-01-04T02:29:19.248Z,102457.73
2019-01-04T02:31:46.873Z,102455.19
2019-01-04T02:35:00.752Z,102457.32
2019-01-04T02:37:42.744Z,102457.34
2019-01-04T02:41:34.250Z,102471.50
2019-01-04T02:44:07.287Z,102474.02
2019-01-04T02:47:13.859Z,102470.99
2019-01-04T02:50:08.048Z,102463.63
2019-01-04T02:52:59.446Z,102465.33
2019-01-04T02:56:05.282Z,102462.79
2019-01-04T02:58:52.969Z,102465.34
2019-01-04T03:01:42.863Z,102457.97
2019-01-04T03:04:29.813Z,102459.25
2019-01-04T03:07:49.693Z,102450.64
2019-01-04T03:10:17.339Z,102442.79
2019-01-04T03:12:44.860Z,102437.99
2019-01-04T03:15:12.374Z,102442.69
2019-01-04T03:17:39.914Z,102445.22
2019-01-04T03:20:07.538Z,102432.23
2019-01-04T03:22:35.099Z,102435.61
2019-01-04T03:25:02.742Z,102440.30
2019-01-04T03:27:30.305Z,102426.87
2019-01-04T03:30:00.869Z,102424.31
2019-01-04T03:32:28.417Z,102419.46
2019-01-04T03:34:55.953Z,102413.84
2019-01-04T03:37:23.442Z,102411.66
2019-01-04T03:39:51.074Z,102414.66
2019-01-04T03:42:18.609Z,102411.11
2019-01-04T03:44:46.169Z,102423.15
2019-01-04T03:47:13.653Z,102425.33
2019-01-04T03:49:41.259Z,102433.55
2019-01-04T03:52:08.974Z,102440.81
2019-01-04T03:54:36.573Z,102433.45
2019-01-04T03:57:04.244Z,102434.30
2019-01-04T03:59:31.805Z,102423.97
2019-01-04T04:01:59.356Z,102421.78
2019-01-04T04:04:26.908Z,102411.02
2019-01-04T04:06:54.519Z,102402.34
2019-01-04T04:09:22.101Z,102404.49
2019-01-04T04:11:49.822Z,102401.83
2019-01-04T04:14:17.361Z,102406.57
2019-01-04T04:16:44.983Z,102401.02
2019-01-04T04:19:12.494Z,102392.83
2019-01-04T04:22:06.623Z,102395.75
2019-01-04T04:24:34.066Z,102387.16
2019-01-04T04:27:01.854Z,102388.46
2019-01-04T04:29:29.385Z,102387.98
2019-01-04T04:31:56.984Z,102385.42
2019-01-04T04:34:24.616Z,102381.94
2019-01-04T04:36:52.199Z,102383.64
2019-01-04T04:39:19.736Z,102388.79
2019-01-04T04:41:47.374Z,102392.64
2019-01-04T04:44:14.779Z,102393.05
2019-01-04T04:46:42.543Z,102393.05
2019-01-04T04:49:10.149Z,102392.16
2019-01-04T04:51:37.903Z,102385.23
2019-01-04T04:54:05.423Z,102388.63
2019-01-04T04:56:32.905Z,102385.51
2019-01-04T04:59:00.594Z,102381.58
2019-01-04T05:01:28.348Z,102383.77
2019-01-04T05:03:56.087Z,102373.88
2019-01-04T05:06:23.614Z,102364.27
2019-01-04T05:08:51.510Z,102366.73
2019-01-04T05:11:19.124Z,102374.95
2019-01-04T05:14:25.178Z,102379.25
2019-01-04T05:16:52.938Z,102376.20
2019-01-04T05:19:20.898Z,102370.53
2019-01-04T05:21:48.493Z,102363.59
2019-01-04T05:24:16.023Z,102354.11
2019-01-04T05:26:43.570Z,102344.63
2019-01-04T05:29:11.319Z,102343.73
2019-01-04T05:31:38.907Z,102348.92
2019-01-04T05:34:06.458Z,102344.63
2019-01-04T05:36:33.983Z,102338.05
2019-01-04T05:39:01.517Z,102345.44
2019-01-04T05:41:29.163Z,102344.58
2019-01-04T05:43:56.698Z,102349.31
2019-01-04T05:46:24.255Z,102346.28
2019-01-04T05:48:51.924Z,102341.13
2019-01-04T05:51:19.575Z,102348.93
2019-01-04T05:53:50.393Z,102346.82
2019-01-04T05:56:17.998Z,102333.41
2019-01-04T05:58:45.536Z,102336.00
2019-01-04T06:01:13.237Z,102326.13
2019-01-04T06:03:40.910Z,102330.86
2019-01-04T06:06:08.915Z,102321.78
2019-01-04T06:08:36.378Z,102329.88
2019-01-04T06:11:03.973Z,102330.77
2019-01-04T06:13:31.558Z,102330.76
2019-01-04T06:15:59.421Z,102326.88
2019-01-04T06:18:26.899Z,102331.97
2019-01-04T06:20:54.458Z,102331.57
2019-01-04T06:23:22.013Z,102344.84
2019-01-04T06:25:49.399Z,102341.84
2019-01-04T06:28:17.313Z,102336.56
2019-01-04T06:30:45.032Z,102338.35
2019-01-04T06:33:12.629Z,102346.19
2019-01-04T06:35:40.058Z,102341.34
2019-01-04T06:38:07.529Z,102331.86
2019-01-04T06:40:34.988Z,102329.77
2019-01-04T06:43:02.473Z,102331.52
2019-01-04T06:45:29.878Z,102328.58
2019-01-04T06:47:57.333Z,102324.73
2019-01-04T06:50:24.838Z,102332.07
2019-01-04T06:52:52.644Z,102334.61
2019-01-04T06:55:56.861Z,102339.85
2019-01-04T06:58:24.289Z,102348.97
2019-01-04T07:00:51.823Z,102343.03
2019-01-04T07:03:19.364Z,102345.66
2019-01-04T07:05:46.753Z,102335.74
2019-01-04T07:08:14.208Z,102327.96
2019-01-04T07:10:41.814Z,102335.39
2019-01-04T07:13:09.348Z,102347.58
2019-01-04T07:15:36.854Z,102349.24
2019-01-04T07:18:04.448Z,102347.50
2019-01-04T07:20:31.869Z,102335.39
2019-01-04T07:22:59.328Z,102327.25
2019-01-04T07:25:26.738Z,102329.84
2019-01-04T07:27:54.181Z,102331.55
2019-01-04T07:30:21.638Z,102328.05
2019-01-04T07:32:49.153Z,102341.06
2019-01-04T07:35:16.629Z,102339.67
2019-01-04T07:37:44.090Z,102336.67
2019-01-04T07:40:11.493Z,102330.10
2019-01-04T07:42:39.015Z,102337.03
2019-01-04T07:45:08.070Z,102335.25
2019-01-04T07:47:35.508Z,102331.81
2019-01-04T07:50:03.248Z,102318.52
2019-01-04T07:52:30.753Z,102310.25
2019-01-04T07:54:58.226Z,102318.39
2019-01-04T07:57:25.658Z,102320.48
2019-01-04T07:59:53.128Z,102311.45
2019-01-04T08:02:50.445Z,102319.14
2019-01-04T08:05:27.957Z,102314.70
2019-01-04T08:07:55.409Z,102306.46
2019-01-04T08:10:23.253Z,102292.59
2019-01-04T08:12:50.673Z,102294.28
2019-01-04T08:15:18.268Z,102287.80
2019-01-04T08:17:45.778Z,102290.80
2019-01-04T08:20:13.278Z,102286.06
2019-01-04T08:22:40.850Z,102296.39
2019-01-04T08:25:09.095Z,102294.34
2019-01-04T08:27:37.870Z,102295.19
2019-01-04T08:30:08.732Z,102292.59
2019-01-04T08:32:36.292Z,102299.43
2019-01-04T08:35:04.391Z,102284.59
2019-01-04T08:37:31.911Z,102291.48
2019-01-04T08:39:59.530Z,102291.37
2019-01-04T08:42:27.071Z,102293.91
2019-01-04T08:44:54.750Z,102301.25
2019-01-04T08:47:22.314Z,102297.86
2019-01-04T08:49:50.150Z,102299.94
2019-01-04T08:52:17.698Z,102301.64
2019-01-04T08:54:45.513Z,102300.75
2019-01-04T08:57:12.933Z,102300.67
2019-01-04T08:59:40.784Z,102298.53
2019-01-04T09:02:08.493Z,102286.47
2019-01-04T09:04:36.414Z,102290.25
2019-01-04T09:07:03.848Z,102282.84
2019-01-04T09:09:31.319Z,102285.00
2019-01-04T09:11:58.733Z,102279.73
2019-01-04T09:14:26.218Z,102275.78
2019-01-04T09:16:54.029Z,102270.92
2019-01-04T09:19:21.498Z,102277.81
2019-01-04T09:21:48.898Z,102276.91
2019-01-04T09:24:16.299Z,102274.74
2019-01-04T09:43:30.432Z,102265.41
2019-01-04T09:53:11.397Z,102243.25
2019-01-04T09:58:58.173Z,102232.57
2019-01-04T10:09:51.192Z,102222.27
2019-01-04T10:19:34.443Z,102205.29
2019-01-04T10:22:01.998Z,102197.63
2019-01-04T10:24:29.598Z,102191.37
2019-01-04T10:26:57.128Z,102186.09
2019-01-04T10:29:24.536Z,102181.72
2019-01-04T10:31:51.979Z,102185.60
2019-01-04T10:34:19.398Z,102174.67
2019-01-04T10:36:46.904Z,102167.65
2019-01-04T10:39:14.283Z,102172.30
2019-01-04T10:41:41.849Z,102166.20
2019-01-04T10:44:10.189Z,102163.97
2019-01-04T10:46:37.663Z,102144.17
2019-01-04T10:49:05.131Z,102144.44
2019-01-04T10:51:32.658Z,102139.00
2019-01-04T10:54:00.109Z,102146.41
2019-01-04T10:56:27.528Z,102147.36
2019-01-04T10:58:54.979Z,102143.34
2019-01-04T11:01:22.533Z,102136.30
2019-01-04T11:03:50.013Z,102131.63
2019-01-04T11:06:17.453Z,102129.03
2019-01-04T11:08:44.888Z,102128.95
2019-01-04T11:11:12.353Z,102127.03
2019-01-04T11:13:39.800Z,102120.34
2019-01-04T11:16:07.300Z,102123.29
2019-01-04T11:18:34.713Z,102116.83
2019-01-04T11:21:05.032Z,102118.56
2019-01-04T11:24:13.703Z,102113.02
2019-01-04T11:27:04.815Z,102115.05
2019-01-04T11:30:15.898Z,102119.20
2019-01-04T11:33:26.688Z,102118.37
2019-01-04T11:36:28.331Z,102110.67
2019-01-04T11:39:37.529Z,102118.86
2019-01-04T11:42:38.289Z,102121.17
2019-01-04T11:45:35.756Z,102108.23
2019-01-04T11:48:11.632Z,102102.58
2019-01-04T11:51:07.669Z,102082.38
2019-01-04T11:53:35.396Z,102066.24
2019-01-04T11:56:03.164Z,102072.06
2019-01-04T11:58:30.776Z,102056.74
2019-01-04T12:00:58.426Z,102054.06
2019-01-04T12:03:26.076Z,102065.68
2019-01-04T12:05:53.697Z,102053.13
2019-01-04T12:08:21.462Z,102054.80
2019-01-04T12:10:49.136Z,102045.86
2019-01-04T12:13:16.897Z,102037.15
2019-01-04T12:15:44.576Z,102034.16
2019-01-04T12:18:12.356Z,102033.70
2019-01-04T12:20:45.266Z,102026.74
2019-01-04T12:23:11.270Z,102021.06
2019-01-04T12:25:38.993Z,102014.58
2019-01-04T12:28:06.590Z,102000.81
2019-01-04T12:30:34.253Z,102005.53
2019-01-04T12:33:01.870Z,101991.70
2019-01-04T12:35:29.511Z,101978.89
2019-01-04T12:37:57.230Z,101974.00
2019-01-04T12:40:24.838Z,101953.84
2019-01-04T12:42:52.609Z,101959.50
2019-01-04T12:45:20.581Z,101965.80
2019-01-04T12:47:48.435Z,101963.94
2019-01-04T12:50:16.268Z,101973.02
2019-01-04T12:52:44.256Z,101963.01
2019-01-04T12:55:11.992Z,101970.36
2019-01-04T12:57:39.916Z,101971.74
2019-01-04T13:00:09.903Z,101961.31
2019-01-04T13:02:37.612Z,101953.84
2019-01-04T13:05:05.665Z,101965.04
2019-01-04T13:07:33.443Z,101961.62
2019-01-04T13:10:01.307Z,101956.66
2019-01-04T13:12:29.162Z,101954.94
2019-01-04T13:14:56.978Z,101948.16
2019-01-04T13:17:24.983Z,101944.34
2019-01-04T13:19:53.404Z,101948.16
2019-01-04T13:22:21.417Z,101926.53
2019-01-04T13:24:49.203Z,101931.42
2019-01-04T13:27:17.002Z,101930.52
2019-01-04T13:29:44.923Z,101930.88
2019-01-04T13:32:12.944Z,101944.89
2019-01-04T13:34:40.784Z,101953.98
2019-01-04T13:37:08.937Z,101955.20
2019-01-04T13:39:36.755Z,101950.09
2019-01-04T13:42:05.074Z,101951.84
2019-01-04T13:44:33.105Z,101946.94
2019-01-04T13:47:01.144Z,101948.13
2019-01-04T13:49:28.978Z,101945.92
2019-01-04T13:51:56.887Z,101940.72
2019-01-04T13:54:24.857Z,101943.41
2019-01-04T13:56:52.656Z,101966.19
2019-01-04T13:59:22.376Z,101971.45
2019-01-04T14:01:50.332Z,101979.26
2019-01-04T14:04:18.460Z,101990.80
2019-01-04T14:06:47.459Z,101981.20
2019-01-04T14:09:15.274Z,101968.73
2019-01-04T14:11:43.335Z,101970.45
2019-01-04T14:14:11.314Z,101975.27
2019-01-04T14:16:39.577Z,101963.40
2019-01-04T14:19:07.352Z,101967.64
2019-01-04T14:21:35.590Z,101967.64
2019-01-04T14:24:03.667Z,101954.94
2019-01-04T14:26:31.715Z,101947.34
2019-01-04T14:28:59.563Z,101949.82
2019-01-04T14:31:27.320Z,101935.88
2019-01-04T14:34:00.233Z,101936.70
2019-01-04T14:36:26.979Z,101942.36
2019-01-04T14:38:54.740Z,101948.34
2019-01-04T14:41:23.410Z,101953.48
2019-01-04T14:43:51.422Z,101950.64
2019-01-04T14:46:20.386Z,101952.67
2019-01-04T14:48:48.197Z,101957.39
2019-01-04T14:51:16.245Z,101954.34
2019-01-04T14:53:44.094Z,101958.27
2019-01-04T14:56:13.296Z,101951.67
2019-01-04T14:58:40.976Z,101953.52
2019-01-04T15:01:08.866Z,101957.03
2019-01-04T15:03:37.020Z,101950.06
2019-01-04T15:06:07.276Z,101947.05
2019-01-04T15:08:35.391Z,101947.38
2019-01-04T15:11:03.434Z,101934.36
2019-01-04T15:13:31.449Z,101938.27
2019-01-04T15:15:59.238Z,101938.66
2019-01-04T15:18:27.159Z,101937.45
2019-01-04T15:20:55.095Z,101938.27
2019-01-04T15:23:23.194Z,101931.80
2019-01-04T15:25:51.466Z,101932.16
2019-01-04T15:28:19.306Z,101924.32
2019-01-04T15:30:48.039Z,101918.17
2019-01-04T15:33:15.881Z,101909.16
2019-01-04T15:35:43.873Z,101905.68
2019-01-04T15:38:12.005Z,101895.36
2019-01-04T15:40:40.000Z,101909.16
2019-01-04T15:43:08.031Z,101905.83
2019-01-04T15:45:36.095Z,101913.09
2019-01-04T15:48:04.095Z,101910.37
2019-01-04T15:50:31.938Z,101909.19
2019-01-04T15:52:59.843Z,101895.05
2019-01-04T15:55:28.051Z,101885.58
2019-01-04T15:57:56.097Z,101882.98
2019-01-04T16:00:24.343Z,101886.80
2019-01-04T16:02:52.658Z,101869.55
2019-01-04T16:05:20.823Z,101883.31
2019-01-04T16:07:48.964Z,101872.90
2019-01-04T16:10:17.275Z,101874.20
2019-01-04T16:12:46.971Z,101877.63
2019-01-04T16:15:15.306Z,101887.16
2019-01-04T16:17:43.601Z,101889.33
2019-01-04T16:20:12.142Z,101881.33
2019-01-04T16:22:40.374Z,101871.19
2019-01-04T16:25:08.564Z,101870.44
2019-01-04T16:27:37.895Z,101873.46
2019-01-04T16:30:08.756Z,101874.73
2019-01-04T16:32:38.782Z,101863.77
2019-01-04T16:35:08.620Z,101855.11
2019-01-04T16:37:37.097Z,101853.87
2019-01-04T16:40:07.164Z,101861.97
2019-01-04T16:42:38.173Z,101863.23
2019-01-04T16:45:08.966Z,101860.93
2019-01-04T16:47:37.375Z,101854.39
2019-01-04T16:50:05.462Z,101850.16
2019-01-04T16:52:33.377Z,101843.45
2019-01-04T16:55:02.415Z,101845.38
2019-01-04T16:57:33.348Z,101843.16
2019-01-04T17:00:01.358Z,101848.23
2019-01-04T17:02:29.557Z,101836.09
2019-01-04T17:04:57.555Z,101831.34
2019-01-04T17:07:25.577Z,101836.75
2019-01-04T17:09:53.955Z,101840.56
2019-01-04T17:12:21.935Z,101838.41
2019-01-04T17:14:50.336Z,101851.07
2019-01-04T17:17:28.713Z,101843.91
2019-01-04T17:19:55.077Z,101845.28
2019-01-04T17:22:23.167Z,101836.16
2019-01-04T17:25:16.485Z,101841.77
2019-01-04T17:27:44.817Z,101827.70
2019-01-04T17:34:47.795Z,101821.64
2019-01-04T22:42:57.551Z,101690.91
2019-01-04T22:45:43.056Z,101681.27
2019-01-04T22:48:42.456Z,101678.66
2019-01-04T22:51:39.361Z,101680.34
2019-01-04T22:54:25.128Z,101683.42
2019-01-04T22:57:21.301Z,101671.68
2019-01-04T23:00:14.511Z,101670.67
2019-01-04T23:03:00.573Z,101678.03
2019-01-04T23:05:46.414Z,101669.16
2019-01-04T23:08:36.228Z,101673.49
2019-01-04T23:11:23.449Z,101675.18
2019-01-04T23:14:16.549Z,101667.94
2019-01-04T23:17:02.377Z,101676.02
2019-01-04T23:20:01.529Z,101665.20
2019-01-04T23:23:09.469Z,101667.86
2019-01-04T23:25:56.500Z,101662.55
2019-01-04T23:28:47.251Z,101665.42
2019-01-04T23:31:43.349Z,101656.03
2019-01-04T23:34:29.255Z,101655.91
2019-01-04T23:37:16.871Z,101654.14
2019-01-04T23:40:07.075Z,101645.52
2019-01-04T23:43:22.630Z,101641.14
2019-01-04T23:46:08.212Z,101645.39
2019-01-04T23:49:31.000Z,101638.95
2019-01-04T23:52:17.094Z,101638.48
2019-01-04T23:55:02.712Z,101633.19
2019-01-04T23:58:01.938Z,101633.19
